Jomi — C6VK4 — position and weather

sailwx.info

Track history (hours):
 
Tides and Currents Weather Stations Pressure Air Temp Water Temp Dewpoint Dewpoint Depression Visibility Wind Speed Wind Dir Waves Ship Positions

Jomi

Last reported at 2016-Aug-26 16:33 UTC. Time now 2016-Aug-27 16:53 UTC.
Position N 56°04' E 011°03'.

Length 88 m; draft 5.8 m.

Type: Cargo ship. MMSI: 309701000.

Date/timePositionNaut miles runAvg speedWind from/ knotsBaromVisibWave heightAir tempDewpointWater temp
2016-Aug-26 16:33N 56°04' E 011°03'9 8.3
2016-Aug-26 15:31N 56°12' E 011°03'31 7.4
2016-Aug-26 11:17N 56°43' E 010°58'6 7.4
2016-Aug-26 10:32N 56°48' E 010°52'7 7.2
2016-Aug-26 09:31N 56°55' E 010°49'8 8.4
2016-Aug-26 08:33N 57°03' E 010°48'10 9.3
2016-Aug-26 07:27N 57°13' E 010°43'8 8.6
2016-Aug-26 06:29N 57°21' E 010°42'18 9.2
2016-Aug-26 04:33N 57°39' E 010°44'8 7.8
2016-Aug-26 03:33N 57°47' E 010°40'1110.8
2016-Aug-26 02:33N 57°47' E 010°20'10310.1
2016-Aug-25 16:22N 57°57' E 007°07'810.3
2016-Aug-25 15:33N 57°59' E 006°52'1010.2
2016-Aug-25 14:33N 58°04' E 006°34'1010.2
2016-Aug-25 13:33N 58°11' E 006°21'9 8.7
2016-Aug-25 12:30N 58°20' E 006°15'0 0.0
2016-Aug-25 07:13N 58°20' E 006°15'0 0.0
2016-Aug-25 06:32N 58°20' E 006°15'0 0.0
2016-Aug-24 18:32N 58°20' E 006°16'9 8.7
2016-Aug-24 17:33N 58°11' E 006°20'1110.7
2016-Aug-24 16:33N 58°04' E 006°34'1110.7
2016-Aug-24 15:33N 57°58' E 006°52'1110.9
2016-Aug-24 14:32N 57°56' E 007°12'3611.3
2016-Aug-24 11:18N 58°05' E 008°19'911.5
2016-Aug-24 10:33N 58°11' E 008°30'1111.4
2016-Aug-24 09:33N 58°20' E 008°45'5310.3
2016-Aug-24 04:27N 59°03' E 009°43'1 0.2
2016-Aug-23 20:33N 59°04' E 009°42'0 0.0
2016-Aug-23 18:18N 59°04' E 009°42'0 0.0
2016-Aug-23 03:12N 59°04' E 009°42'0 0.0
2016-Aug-23 02:33N 59°04' E 009°42'0 0.0
2016-Aug-23 01:30N 59°04' E 009°42'0 0.0
2016-Aug-22 22:33N 59°04' E 009°42'2 1.1
2016-Aug-22 20:18N 59°02' E 009°44'12 6.7
2016-Aug-22 18:33N 58°50' E 009°39'8 8.4
2016-Aug-22 17:33N 58°44' E 009°28'37 9.3
2016-Aug-22 13:33N 58°17' E 008°40'10 9.6
2016-Aug-22 12:33N 58°09' E 008°28'46 9.1
2016-Aug-22 07:28N 57°56' E 007°05'910.1
2016-Aug-22 06:33N 57°57' E 006°48'1010.1
2016-Aug-22 05:33N 57°59' E 006°29'10 9.6
2016-Aug-22 04:33N 58°00' E 006°11'283 9.4
2016-Aug-20 22:23N 58°42' W 002°43'1012.3
2016-Aug-20 21:33N 58°43' W 003°03'1413.7
2016-Aug-20 20:34N 58°42' W 003°29'1111.3
2016-Aug-20 19:33N 58°41' W 003°51'193 8.7
2016-Aug-19 21:28N 55°54' W 006°49'8 8.5
2016-Aug-19 20:33N 55°47' W 006°42'7 7.5
2016-Aug-19 19:33N 55°41' W 006°35'7 7.3
2016-Aug-19 18:33N 55°35' W 006°27'1010.3
2016-Aug-19 17:33N 55°28' W 006°15'1212.3
2016-Aug-19 16:33N 55°20' W 005°57'32 0.7
2016-Aug-17 22:05N 55°14' W 005°03'611.3
2016-Aug-17 21:33N 55°09' W 005°09'1110.7
2016-Aug-17 20:32N 54°60' W 005°21'1010.5
2016-Aug-17 19:33N 54°52' W 005°31'1110.5
2016-Aug-17 18:33N 54°43' W 005°42'9 9.0
2016-Aug-17 17:33N 54°37' W 005°54'  
Track history (hours):
 
Tides and Currents Weather Stations Pressure Air Temp Water Temp Dewpoint Dewpoint Depression Visibility Wind Speed Wind Dir Waves Ship Positions

Jomi

Last reported at 2016-Aug-26 16:33 UTC. Time now 2016-Aug-27 16:53 UTC.
Position N 56°04' E 011°03'.

Length 88 m; draft 5.8 m.

Type: Cargo ship. MMSI: 309701000.

Date/timePositionNaut miles runAvg speedWind from/ knotsBaromVisibWave heightAir tempDewpointWater temp
2016-Aug-26 16:33N 56°04' E 011°03'9 8.3
2016-Aug-26 15:31N 56°12' E 011°03'31 7.4
2016-Aug-26 11:17N 56°43' E 010°58'6 7.4
2016-Aug-26 10:32N 56°48' E 010°52'7 7.2
2016-Aug-26 09:31N 56°55' E 010°49'8 8.4
2016-Aug-26 08:33N 57°03' E 010°48'10 9.3
2016-Aug-26 07:27N 57°13' E 010°43'8 8.6
2016-Aug-26 06:29N 57°21' E 010°42'18 9.2
2016-Aug-26 04:33N 57°39' E 010°44'8 7.8
2016-Aug-26 03:33N 57°47' E 010°40'1110.8
2016-Aug-26 02:33N 57°47' E 010°20'10310.1
2016-Aug-25 16:22N 57°57' E 007°07'810.3
2016-Aug-25 15:33N 57°59' E 006°52'1010.2
2016-Aug-25 14:33N 58°04' E 006°34'1010.2
2016-Aug-25 13:33N 58°11' E 006°21'9 8.7
2016-Aug-25 12:30N 58°20' E 006°15'0 0.0
2016-Aug-25 07:13N 58°20' E 006°15'0 0.0
2016-Aug-25 06:32N 58°20' E 006°15'0 0.0
2016-Aug-24 18:32N 58°20' E 006°16'9 8.7
2016-Aug-24 17:33N 58°11' E 006°20'1110.7
2016-Aug-24 16:33N 58°04' E 006°34'1110.7
2016-Aug-24 15:33N 57°58' E 006°52'1110.9
2016-Aug-24 14:32N 57°56' E 007°12'3611.3
2016-Aug-24 11:18N 58°05' E 008°19'911.5
2016-Aug-24 10:33N 58°11' E 008°30'1111.4
2016-Aug-24 09:33N 58°20' E 008°45'5310.3
2016-Aug-24 04:27N 59°03' E 009°43'1 0.2
2016-Aug-23 20:33N 59°04' E 009°42'0 0.0
2016-Aug-23 18:18N 59°04' E 009°42'0 0.0
2016-Aug-23 03:12N 59°04' E 009°42'0 0.0
2016-Aug-23 02:33N 59°04' E 009°42'0 0.0
2016-Aug-23 01:30N 59°04' E 009°42'0 0.0
2016-Aug-22 22:33N 59°04' E 009°42'2 1.1
2016-Aug-22 20:18N 59°02' E 009°44'12 6.7
2016-Aug-22 18:33N 58°50' E 009°39'8 8.4
2016-Aug-22 17:33N 58°44' E 009°28'37 9.3
2016-Aug-22 13:33N 58°17' E 008°40'10 9.6
2016-Aug-22 12:33N 58°09' E 008°28'46 9.1
2016-Aug-22 07:28N 57°56' E 007°05'910.1
2016-Aug-22 06:33N 57°57' E 006°48'1010.1
2016-Aug-22 05:33N 57°59' E 006°29'10 9.6
2016-Aug-22 04:33N 58°00' E 006°11'283 9.4
2016-Aug-20 22:23N 58°42' W 002°43'1012.3
2016-Aug-20 21:33N 58°43' W 003°03'1413.7
2016-Aug-20 20:34N 58°42' W 003°29'1111.3
2016-Aug-20 19:33N 58°41' W 003°51'193 8.7
2016-Aug-19 21:28N 55°54' W 006°49'8 8.5
2016-Aug-19 20:33N 55°47' W 006°42'7 7.5
2016-Aug-19 19:33N 55°41' W 006°35'7 7.3
2016-Aug-19 18:33N 55°35' W 006°27'1010.3
2016-Aug-19 17:33N 55°28' W 006°15'1212.3
2016-Aug-19 16:33N 55°20' W 005°57'32 0.7
2016-Aug-17 22:05N 55°14' W 005°03'611.3
2016-Aug-17 21:33N 55°09' W 005°09'1110.7
2016-Aug-17 20:32N 54°60' W 005°21'1010.5
2016-Aug-17 19:33N 54°52' W 005°31'1110.5
2016-Aug-17 18:33N 54°43' W 005°42'9 9.0
2016-Aug-17 17:33N 54°37' W 005°54'  

Dump ship's entire track history